Latest Coastal Weather Observations for Minlaton Airport

IDS60701

Issued at 9:41 am CST Sunday 20 August 2017 (issued every 10 minutes, with the page automatically refreshed every 10 minutes)

About coastal observations | Map of coastal stations | Coastal observations for SA | Marine services | Other Formats
Station Details ID: 022031 Name: MINLATON AERO Lat: -34.75 Lon: 137.53 Height: 32.0 m
Data from the previous 72 hours. | See also: Recent months at Minlaton Airport
Date/Time
CST
Temp
°C
Wind Pressure Rain since
9am
mm
Weather Cloud Vis
km
Sea
Height
m
Swell
Dir  Spd
kts
Gust
kts
hPa Trend Height
m
Period
s
Dir
20/09:30am 10.3 NE 17 22 1020.9 - 0.0 - - - - - - -
20/09:00am 9.9 NE 17 24 1021.7 - 0.0 - - - - - - -
20/08:30am 9.4 NE 17 21 1022.1 - 0.0 - - - - - - -
20/08:00am 8.4 NE 16 20 1022.3 - 0.0 - - - - - - -
20/07:30am 7.6 ENE 15 19 1022.0 - 0.0 - - - - - - -
20/07:00am 7.5 ENE 15 18 1022.0 - 0.0 - - - - - - -
20/06:30am 7.4 ENE 15 19 1022.0 - 0.0 - - - - - - -
20/06:00am 7.1 ENE 14 17 1022.4 - 0.0 - - - - - - -
20/05:30am 6.7 ENE 14 16 1022.6 - 0.0 - - - - - - -
20/05:00am 6.6 ENE 13 16 1022.6 - 0.0 - - - - - - -
20/04:30am 6.7 ENE 13 17 1022.9 - 0.0 - - - - - - -
20/04:00am 6.2 ENE 13 16 1023.0 - 0.0 - - - - - - -
20/03:30am 6.7 ENE 12 15 1023.4 - 0.0 - - - - - - -
20/03:00am 6.8 ENE 14 16 1023.7 - 0.0 - - - - - - -
20/02:30am 6.4 ENE 13 16 1024.0 - 0.0 - - - - - - -
20/02:00am 6.5 ENE 11 15 1024.5 - 0.0 - - - - - - -
20/01:30am 7.0 ENE 13 16 1024.8 - 0.0 - - - - - - -
20/01:00am 6.8 ENE 11 13 1025.1 - 0.0 - - - - - - -
20/12:30am 5.5 ENE 10 12 1025.4 - 0.0 - - - - - - -
20/12:00am 4.9 E 10 11 1025.8 - 0.0 - - - - - - -
 
Date/Time
CST
Temp
°C
Wind Pressure Rain since
9am
mm
Weather Cloud Vis
km
Sea
Height
m
Swell
Dir  Spd
kts
Gust
kts
hPa Trend Height
m
Period
s
Dir
19/11:30pm 5.0 E 10 11 1026.3 - 0.0 - - - - - - -
19/11:00pm 4.8 E 10 11 1026.6 - 0.0 - - - - - - -
19/10:30pm 4.9 E 11 11 1026.8 - 0.0 - - - - - - -
19/10:00pm 5.1 E 11 12 1026.9 - 0.0 - - - - - - -
19/09:30pm 5.1 E 11 11 1026.8 - 0.0 - - - - - - -
19/09:00pm 5.3 E 11 11 1026.9 - 0.0 - - - - - - -
19/08:30pm 5.7 E 10 11 1027.0 - 0.0 - - - - - - -
19/08:00pm 6.0 E 10 11 1027.4 - 0.0 - - - - - - -
19/07:30pm 6.4 ESE 11 11 1027.5 - 0.0 - - - - - - -
19/07:00pm 6.1 E 8 9 1027.6 - 0.0 - - - - - - -
19/06:30pm 7.3 E 7 8 1027.5 - 0.0 - - - - - - -
19/06:00pm 8.0 E 8 9 1027.5 - 0.0 - - - - - - -
19/05:30pm 10.0 E 6 7 1027.7 - 0.0 - - - - - - -
19/05:00pm 11.3 E 5 6 1027.6 - 0.0 - - - - - - -
19/04:30pm 12.4 ENE 6 7 1027.5 - 0.0 - - - - - - -
19/04:00pm 13.8 ENE 7 9 1027.5 - 0.0 - - - - - - -
19/03:30pm 13.5 E 8 10 1027.5 - 0.0 - - - - - - -
19/03:00pm 13.3 E 7 11 1027.4 - 0.0 - - - - - - -
19/02:30pm 12.5 E 9 11 1027.8 - 0.0 - - - - - - -
19/02:00pm 13.5 E 9 11 1028.1 - 0.0 - - - - - - -
19/01:30pm 15.2 ENE 2 6 1028.3 - 0.0 - - - - - - -
19/01:00pm 15.7 SE 3 9 1028.6 - 0.0 - - - - - - -
19/12:30pm 14.6 SSE 6 9 1029.1 - 0.0 - - - - - - -
19/12:00pm 13.1 SSE 9 16 1029.5 - 0.0 - - - - - - -
19/11:30am 12.8 SSE 8 10 1030.0 - 0.0 - - - - - - -
19/11:00am 13.7 S 8 11 1030.2 - 0.0 - - - - - - -
19/10:30am 13.4 S 9 13 1030.3 - 0.0 - - - - - - -
19/10:00am 12.8 S 9 11 1030.3 - 0.0 - - - - - - -
19/09:30am 12.5 SSE 7 9 1030.5 - 0.0 - - - - - - -
19/09:00am 11.3 S 6 7 1030.4 - 0.0 - - - - - - -
19/08:30am 9.9 SSE 5 6 1030.2 - 0.0 - - - - - - -
19/08:00am 7.2 SE 7 8 1029.8 - 0.0 - - - - - - -
19/07:30am 3.6 SSE 6 7 1029.4 - 0.0 - - - - - - -
19/07:00am 2.7 CALM 0 5 1029.0 - 0.0 - - - - - - -
19/06:30am 3.1 CALM 0 0 1028.6 - 0.0 - - - - - - -
19/06:00am 3.9 CALM 0 0 1028.4 - 0.0 - - - - - - -
19/05:30am 5.3 SE 2 3 1028.2 - 0.0 - - - - - - -
19/05:00am 5.2 S 1 3 1027.9 - 0.0 - - - - - - -
19/04:30am 6.2 CALM 0 0 1027.8 - 0.0 - - - - - - -
19/04:00am 6.9 CALM 0 0 1027.5 - 0.0 - - - - - - -
19/03:30am 6.4 SSW 3 4 1027.5 - 0.0 - - - - - - -
19/03:00am 5.5 S 3 3 1027.4 - 0.0 - - - - - - -
19/02:30am 5.3 CALM 0 0 1027.6 - 0.0 - - - - - - -
19/02:00am 7.9 CALM 0 0 1027.6 - 0.0 - - - - - - -
19/01:30am 8.3 SSW 5 7 1027.6 - 0.0 - - - - - - -
19/01:00am 7.3 SSE 5 5 1027.5 - 0.0 - - - - - - -
19/12:30am 5.6 SSE 6 7 1027.4 - 0.0 - - - - - - -
19/12:00am 7.1 S 7 9 1027.4 - 0.0 - - - - - - -
 
Date/Time
CST
Temp
°C
Wind Pressure Rain since
9am
mm
Weather Cloud Vis
km
Sea
Height
m
Swell
Dir  Spd
kts
Gust
kts
hPa Trend Height
m
Period
s
Dir
18/11:30pm 8.7 SSE 10 13 1027.3 - 0.0 - - - - - - -
18/11:00pm 7.8 S 8 12 1027.5 - 0.0 - - - - - - -
18/10:30pm 7.1 S 5 7 1027.5 - 0.0 - - - - - - -
18/10:00pm 7.1 S 3 4 1027.5 - 0.0 - - - - - - -
18/09:30pm 7.4 S 7 9 1027.4 - 0.0 - - - - - - -
18/09:00pm 5.5 SW 5 6 1027.2 - 0.0 - - - - - - -
18/08:30pm 7.4 SW 7 8 1027.0 - 0.0 - - - - - - -
18/08:00pm 7.7 SW 6 7 1026.8 - 0.0 - - - - - - -
18/07:30pm 8.7 SW 8 9 1026.6 - 0.0 - - - - - - -
18/07:00pm 10.7 SW 9 12 1026.5 - 0.0 - - - - - - -
18/06:30pm 9.6 SW 9 11 1026.2 - 0.0 - - - - - - -
18/06:00pm 11.1 SW 12 15 1025.8 - 0.0 - - - - - - -
18/05:30pm 11.3 WSW 13 17 1025.4 - 0.0 - - - - - - -
18/05:00pm 12.3 WSW 16 21 1025.0 - 0.0 - - - - - - -
18/04:30pm 13.1 WSW 15 21 1024.8 - 0.0 - - - - - - -
18/04:00pm 14.0 WSW 16 22 1024.6 - 0.0 - - - - - - -
18/03:30pm 14.0 WSW 18 25 1024.4 - 0.0 - - - - - - -
18/03:00pm 13.8 WSW 20 26 1024.4 - 0.0 - - - - - - -
18/02:30pm 14.2 WSW 19 25 1024.3 - 0.0 - - - - - - -
18/02:00pm 14.6 WSW 20 27 1024.1 - 0.0 - - - - - - -
18/01:30pm 14.7 WSW 19 28 1023.8 - 0.0 - - - - - - -
18/01:00pm 14.5 WSW 21 25 1023.9 - 0.0 - - - - - - -
18/12:30pm 14.2 WSW 20 26 1024.1 - 0.0 - - - - - - -
18/12:00pm 14.4 WSW 20 25 1024.2 - 0.0 - - - - - - -
18/11:30am 13.9 WSW 20 26 1024.2 - 0.0 - - - - - - -
18/11:00am 12.7 WSW 20 28 1024.0 - 0.0 - - - - - - -
18/10:30am 13.6 WSW 19 24 1023.6 - 0.0 - - - - - - -
18/10:00am 13.2 SW 18 24 1023.4 - 0.0 - - - - - - -
18/09:49am 13.0 SW 17 27 1023.3 - 0.0 - - - - - - -
18/09:30am 12.6 SW 15 23 1023.1 - 0.0 - - - - - - -
18/09:00am 11.8 SW 13 18 1022.6 - 1.4 - - - - - - -
18/08:30am 11.2 SW 12 15 1022.1 - 1.4 - - - - - - -
18/08:00am 10.4 SW 13 17 1021.4 - 1.4 - - - - - - -
18/07:30am 9.8 SW 15 20 1020.8 - 1.4 - - - - - - -
18/07:00am 10.4 WSW 17 22 1020.5 - 1.4 - - - - - - -
18/06:30am 9.9 WSW 17 22 1019.9 - 1.4 - - - - - - -
18/06:00am 9.9 WSW 17 23 1019.4 - 1.4 - - - - - - -
18/05:30am 10.5 WSW 18 25 1018.9 - 1.4 - - - - - - -
18/05:00am 10.0 WSW 20 27 1018.3 - 1.4 - - - - - - -
18/04:31am 10.8 WSW 18 31 1017.8 - 1.4 - - - - - - -
18/04:30am 10.7 WSW 17 25 1017.9 - 1.4 - - - - - - -
18/04:00am 10.6 WSW 19 27 1017.4 - 1.4 - - - - - - -
18/03:30am 10.0 WSW 18 28 1017.2 - 1.4 - - - - - - -
18/03:17am 10.4 WSW 16 26 1017.2 - 1.4 - - - - - - -
18/03:00am 10.0 W 17 21 1017.1 - 1.4 Recent precip. - - - - - -
18/02:30am 9.6 WSW 16 23 1016.9 - 1.4 - - - - - - -
18/02:00am 10.8 W 23 37 1016.6 - 1.2 - - - - - - -
18/01:30am 9.8 WSW 25 35 1016.6 - 1.2 - - - - - - -
18/01:00am 10.0 WSW 21 31 1016.3 - 1.2 - - - - - - -
18/12:30am 11.3 WSW 21 31 1015.8 - 1.2 - - - - - - -
18/12:02am 10.9 WSW 26 37 1015.5 - 1.2 - - - - - - -
18/12:00am 11.2 WSW 25 32 1015.4 - 1.2 - - - - - - -
 
Date/Time
CST
Temp
°C
Wind Pressure Rain since
9am
mm
Weather Cloud Vis
km
Sea
Height
m
Swell
Dir  Spd
kts
Gust
kts
hPa Trend Height
m
Period
s
Dir
17/11:48pm 10.5 WSW 24 34 1015.4 - 1.2 - - - - - - -
17/11:30pm 10.5 W 27 34 1015.2 - 1.2 - - - - - - -
17/11:00pm 9.1 W 25 39 1015.4 - 1.2 - - - - - - -
17/10:30pm 9.2 WSW 24 43 1015.0 - 0.6 - - - - - - -
17/10:27pm 10.6 WSW 21 35 1015.0 - 0.6 - - - - - - -
17/10:00pm 11.3 W 26 34 1014.4 - 0.6 - - - - - - -
17/09:40pm 11.1 W 27 38 1014.2 - 0.6 - - - - - - -
17/09:30pm 10.9 W 28 36 1014.1 - 0.6 - - - - - - -
17/09:03pm 9.6 W 21 32 1013.9 - 0.6 - - - - - - -
17/09:00pm 9.5 W 21 28 1014.0 - 0.6 Recent precip. - - - - - -
17/08:30pm 11.4 W 25 35 1013.5 - 0.4 - - - - - - -
17/08:03pm 10.3 WSW 21 31 1013.2 - 0.4 - - - - - - -
17/08:00pm 9.6 WSW 22 31 1013.2 - 0.4 - - - - - - -
17/07:53pm 9.1 WSW 28 38 1013.3 - 0.4 - - - - - - -
17/07:49pm 10.2 W 26 38 1013.2 - 0.4 - - - - - - -
17/07:45pm 11.1 W 21 31 1012.9 - 0.4 - - - - - - -
17/07:30pm 9.9 W 21 27 1012.9 - 0.4 - - - - - - -
17/07:19pm 9.9 W 23 33 1012.8 - 0.4 - - - - - - -
17/07:00pm 10.5 W 23 32 1012.4 - 0.4 - - - - - - -
17/06:45pm 10.2 W 25 35 1012.2 - 0.4 - - - - - - -
17/06:30pm 10.1 W 23 31 1011.8 - 0.4 - - - - - - -
17/06:08pm 8.9 W 30 50 1011.7 - 0.4 - - - - - - -
17/06:07pm 8.9 W 29 50 1011.7 - 0.4 - - - - - - -
17/06:03pm 8.6 W 27 50 1011.6 - 0.2 - - - - - - -
17/06:02pm 9.8 W 26 44 1011.7 - 0.0 - - - - - - -
17/06:00pm 12.0 W 23 34 1011.3 - 0.0 - - - - - - -
17/05:54pm 11.7 W 24 34 1011.2 - 0.0 - - - - - - -
17/05:30pm 11.6 W 23 32 1010.9 - 0.0 - - - - - - -
17/05:00pm 10.9 W 27 37 1010.6 - 0.0 - - - - - - -
17/04:46pm 10.8 W 25 43 1010.6 - 0.0 - - - - - - -
17/04:31pm 12.6 W 22 32 1010.1 - 0.0 - - - - - - -
17/04:30pm 12.7 W 21 28 1010.1 - 0.0 - - - - - - -
17/04:05pm 12.1 W 23 33 1010.0 - 0.0 - - - - - - -
17/04:00pm 12.1 W 24 33 1009.8 - 0.0 - - - - - - -
17/03:34pm 12.7 W 29 40 1009.3 - 0.0 - - - - - - -
17/03:30pm 13.2 W 28 36 1009.4 - 0.0 - - - - - - -
17/03:02pm 13.7 W 26 36 1009.2 - 0.0 - - - - - - -
17/03:00pm 13.7 W 27 36 1009.3 - 0.0 - - - - - - -
17/02:33pm 14.5 W 24 34 1009.0 - 0.0 - - - - - - -
17/02:30pm 14.4 W 24 30 1009.0 - 0.0 - - - - - - -
17/02:19pm 14.3 WNW 25 35 1009.0 - 0.0 - - - - - - -
17/02:00pm 13.4 W 27 35 1008.9 - 0.0 - - - - - - -
17/01:30pm 12.7 W 25 37 1008.8 - 0.0 - - - - - - -
17/01:00pm 14.5 WNW 27 39 1008.4 - 0.0 - - - - - - -
17/12:48pm 14.7 WNW 23 33 1008.4 - 0.0 - - - - - - -
17/12:30pm 14.5 WNW 26 32 1008.6 - 0.0 - - - - - - -
17/12:03pm 14.4 WNW 25 35 1008.7 - 0.0 - - - - - - -
17/12:00pm 14.5 WNW 24 33 1008.9 - 0.0 - - - - - - -
17/11:30am 14.8 WNW 21 27 1009.0 - 0.0 - - - - - - -
17/11:20am 14.4 WNW 19 29 1009.1 - 0.0 - - - - - - -
17/11:00am 14.2 WNW 21 27 1009.1 - 0.0 - - - - - - -
17/10:30am 13.9 WNW 22 31 1008.9 - 0.0 - - - - - - -
17/10:20am 14.0 WNW 19 29 1008.9 - 0.0 - - - - - - -
17/10:00am 13.6 WNW 21 27 1008.8 - 0.0 - - - - - - -

Other Formats:

Comma delimited format used in spreadsheet applications
http://www.bom.gov.au/fwo/IDS60701/IDS60701.95659.axf

JavaScript Object Notation format (JSON) in row-major order
http://www.bom.gov.au/fwo/IDS60701/IDS60701.95659.json